createdAt,value
2019-04-10T00:01:59.339Z,13.67
2019-04-10T00:05:03.900Z,14.33
2019-04-10T00:08:08.279Z,13.33
2019-04-10T00:11:12.663Z,13.20
2019-04-10T00:14:16.966Z,14.17
2019-04-10T00:17:21.273Z,14.17
2019-04-10T00:20:26.666Z,16.63
2019-04-10T00:23:31.169Z,16.27
2019-04-10T00:26:35.554Z,16.50
2019-04-10T00:29:40.535Z,16.60
2019-04-10T00:32:45.908Z,15.03
2019-04-10T00:35:50.348Z,14.70
2019-04-10T00:38:54.682Z,16.57
2019-04-10T00:41:59.001Z,18.90
2019-04-10T00:45:03.971Z,19.40
2019-04-10T00:48:08.260Z,18.43
2019-04-10T00:51:12.583Z,21.87
2019-04-10T00:54:18.082Z,19.00
2019-04-10T00:57:25.401Z,22.53
2019-04-10T01:00:30.706Z,18.10
2019-04-10T01:03:46.624Z,18.50
2019-04-10T01:06:51.086Z,18.23
2019-04-10T01:09:55.619Z,18.67
2019-04-10T01:13:19.172Z,19.67
2019-04-10T01:16:23.464Z,23.17
2019-04-10T01:19:28.123Z,22.53
2019-04-10T01:22:32.940Z,22.87
2019-04-10T01:25:37.282Z,23.77
2019-04-10T01:28:41.775Z,24.20
2019-04-10T01:31:46.208Z,24.97
2019-04-10T01:34:50.555Z,19.07
2019-04-10T01:38:00.480Z,22.37
2019-04-10T01:41:01.544Z,18.43
2019-04-10T01:44:05.980Z,18.03
2019-04-10T01:47:10.881Z,20.90
2019-04-10T01:50:15.663Z,20.80
2019-04-10T01:53:20.336Z,20.07
2019-04-10T01:56:29.466Z,18.83
2019-04-10T01:59:32.119Z,19.73
2019-04-10T02:02:42.935Z,19.93
2019-04-10T02:05:47.337Z,19.10
2019-04-10T02:08:52.137Z,19.17
2019-04-10T02:11:56.586Z,19.80
2019-04-10T02:15:01.227Z,21.67
2019-04-10T02:18:08.871Z,23.27
2019-04-10T02:21:13.713Z,20.87
2019-04-10T02:24:18.748Z,19.00
2019-04-10T02:27:24.553Z,21.50
2019-04-10T02:30:30.302Z,19.60
2019-04-10T02:33:35.598Z,18.60
2019-04-10T02:36:40.414Z,18.47
2019-04-10T02:39:48.394Z,18.47
2019-04-10T02:42:52.583Z,18.60
2019-04-10T02:45:57.721Z,17.10
2019-04-10T02:49:03.799Z,16.40
2019-04-10T02:52:08.835Z,15.13
2019-04-10T02:55:14.419Z,14.17
2019-04-10T02:58:20.426Z,22.77
2019-04-10T03:01:25.212Z,19.47
2019-04-10T03:04:31.075Z,19.37
2019-04-10T03:07:36.002Z,23.83
2019-04-10T03:10:47.446Z,17.97
2019-04-10T03:13:47.266Z,28.63
2019-04-10T03:16:51.759Z,23.83
2019-04-10T03:19:56.146Z,24.77
2019-04-10T03:23:00.969Z,21.67
2019-04-10T03:26:06.003Z,15.80
2019-04-10T03:29:11.517Z,18.27
2019-04-10T03:32:50.205Z,22.37
2019-04-10T03:35:52.308Z,24.33
2019-04-10T03:39:02.965Z,17.83
2019-04-10T03:42:04.302Z,18.83
2019-04-10T03:45:09.582Z,16.93
2019-04-10T03:48:13.998Z,19.00
2019-04-10T03:51:18.589Z,22.17
2019-04-10T03:54:23.111Z,24.93
2019-04-10T03:57:27.431Z,24.43
2019-04-10T04:00:31.720Z,22.33
2019-04-10T04:03:37.073Z,24.67
2019-04-10T04:06:41.969Z,25.50
2019-04-10T04:10:06.460Z,24.63
2019-04-10T04:13:11.143Z,23.00
2019-04-10T04:16:15.631Z,18.20
2019-04-10T04:19:19.927Z,23.23
2019-04-10T04:22:25.020Z,18.07
2019-04-10T04:25:30.395Z,17.33
2019-04-10T04:28:34.815Z,22.30
2019-04-10T04:31:39.981Z,19.67
2019-04-10T04:34:45.394Z,20.17
2019-04-10T04:37:50.591Z,22.17
2019-04-10T04:40:55.238Z,18.23
2019-04-10T04:43:59.831Z,21.33
2019-04-10T04:47:06.150Z,23.00
2019-04-10T04:50:11.814Z,21.23
2019-04-10T04:53:16.620Z,23.13
2019-04-10T04:56:21.907Z,29.13
2019-04-10T04:59:26.407Z,24.10
2019-04-10T05:02:32.352Z,22.73
2019-04-10T05:05:36.826Z,19.60
2019-04-10T05:08:42.055Z,22.30
2019-04-10T05:12:05.607Z,20.57
2019-04-10T05:15:10.906Z,29.43
2019-04-10T05:18:15.789Z,25.33
2019-04-10T05:21:21.274Z,21.33
2019-04-10T05:24:26.157Z,21.87
2019-04-10T05:27:30.909Z,20.73
2019-04-10T05:30:36.275Z,20.40
2019-04-10T05:33:40.943Z,26.60
2019-04-10T05:36:45.348Z,30.90
2019-04-10T05:39:51.967Z,23.33
2019-04-10T05:42:57.261Z,30.03
2019-04-10T05:46:02.572Z,31.53
2019-04-10T05:49:07.111Z,26.67
2019-04-10T05:52:12.585Z,24.13
2019-04-10T05:55:17.831Z,30.37
2019-04-10T05:58:22.142Z,34.43
2019-04-10T06:01:34.902Z,36.20
2019-04-10T06:04:33.607Z,33.90
2019-04-10T06:07:38.324Z,34.10
2019-04-10T06:10:43.691Z,28.23
2019-04-10T06:13:48.573Z,33.03
2019-04-10T06:16:53.795Z,26.47
2019-04-10T06:19:58.667Z,26.70
2019-04-10T06:23:05.197Z,30.07
2019-04-10T06:26:10.442Z,24.20
2019-04-10T06:29:15.137Z,21.23
2019-04-10T06:32:21.170Z,28.33
2019-04-10T06:35:26.159Z,30.60
2019-04-10T06:38:30.866Z,33.20
2019-04-10T06:41:35.313Z,32.30
2019-04-10T06:44:39.597Z,25.73
2019-04-10T06:47:44.607Z,20.70
2019-04-10T06:50:48.957Z,20.87
2019-04-10T06:54:01.734Z,26.63
2019-04-10T06:57:00.681Z,25.47
2019-04-10T07:00:13.674Z,22.67
2019-04-10T07:03:15.325Z,23.03
2019-04-10T07:06:22.265Z,26.77
2019-04-10T07:09:27.117Z,29.13
2019-04-10T07:12:33.956Z,27.37
2019-04-10T07:15:40.948Z,26.93
2019-04-10T07:18:47.786Z,31.83
2019-04-10T07:21:51.246Z,24.30
2019-04-10T07:24:56.463Z,22.27
2019-04-10T07:28:01.395Z,25.90
2019-04-10T07:31:08.921Z,25.33
2019-04-10T07:34:15.110Z,22.50
2019-04-10T07:37:21.664Z,20.87
2019-04-10T07:40:25.571Z,18.47
2019-04-10T07:43:30.812Z,18.43
2019-04-10T07:46:35.212Z,21.93
2019-04-10T07:49:40.152Z,26.20
2019-04-10T07:52:45.848Z,24.07
2019-04-10T07:56:02.391Z,22.33
2019-04-10T07:58:57.132Z,22.07
2019-04-10T08:02:02.496Z,20.73
2019-04-10T08:05:08.282Z,24.20
2019-04-10T08:08:12.724Z,23.50
2019-04-10T08:11:17.621Z,23.60
2019-04-10T08:14:22.422Z,23.40
2019-04-10T08:17:28.289Z,23.80
2019-04-10T08:20:33.115Z,18.67
2019-04-10T08:23:37.957Z,18.77
2019-04-10T08:26:43.176Z,15.73
2019-04-10T08:29:48.513Z,17.10
2019-04-10T08:32:59.693Z,20.43
2019-04-10T08:36:01.069Z,16.37
2019-04-10T08:39:07.800Z,17.17
2019-04-10T08:42:12.701Z,19.93
2019-04-10T08:45:17.128Z,15.30
2019-04-10T08:48:22.248Z,17.93
2019-04-10T08:51:27.592Z,17.37
2019-04-10T08:54:32.519Z,17.77
2019-04-10T08:57:36.872Z,19.37
2019-04-10T09:00:42.753Z,15.57
2019-04-10T09:03:48.915Z,16.70
2019-04-10T09:06:53.697Z,18.40
2019-04-10T09:10:01.738Z,20.07
2019-04-10T09:13:06.345Z,17.13
2019-04-10T09:16:10.790Z,12.37
2019-04-10T09:19:16.102Z,15.37
2019-04-10T09:22:20.617Z,13.77
2019-04-10T09:25:26.897Z,14.87
2019-04-10T09:28:32.770Z,12.77
2019-04-10T09:31:38.512Z,11.97
2019-04-10T09:34:45.551Z,13.53
2019-04-10T09:37:50.435Z,14.73
2019-04-10T09:40:55.237Z,18.70
2019-04-10T09:44:00.339Z,18.93
2019-04-10T09:47:05.585Z,16.57
2019-04-10T09:50:10.452Z,16.57
2019-04-10T09:53:15.157Z,18.50
2019-04-10T09:56:21.316Z,15.00
2019-04-10T09:59:32.972Z,19.57
2019-04-10T10:02:31.836Z,18.20
2019-04-10T10:05:36.947Z,14.70
2019-04-10T10:08:41.649Z,18.67
2019-04-10T10:11:46.976Z,18.53
2019-04-10T10:14:51.914Z,14.77
2019-04-10T10:17:57.156Z,13.07
2019-04-10T10:21:02.017Z,16.53
2019-04-10T10:24:07.158Z,16.37
2019-04-10T10:27:11.814Z,14.87
2019-04-10T10:30:17.595Z,16.93
2019-04-10T10:33:23.671Z,15.17
2019-04-10T10:36:36.717Z,14.57
2019-04-10T10:39:34.967Z,13.37
2019-04-10T10:42:41.381Z,15.33
2019-04-10T10:45:47.125Z,14.37
2019-04-10T10:48:51.705Z,11.03
2019-04-10T10:51:57.266Z,13.30
2019-04-10T10:55:01.677Z,13.37
2019-04-10T10:58:07.683Z,11.00
2019-04-10T11:01:13.699Z,10.73
2019-04-10T11:04:19.109Z,13.33
2019-04-10T11:07:24.549Z,10.47
2019-04-10T11:10:30.079Z,15.67
2019-04-10T11:13:34.932Z,10.70
2019-04-10T11:16:39.225Z,13.53
2019-04-10T11:19:45.588Z,12.47
2019-04-10T11:22:49.742Z,12.77
2019-04-10T11:25:55.922Z,11.53
2019-04-10T11:29:01.561Z,11.73
2019-04-10T11:32:06.785Z,12.00
2019-04-10T11:35:13.075Z,15.13
2019-04-10T11:38:17.631Z,10.53
2019-04-10T11:41:23.406Z,14.87
2019-04-10T11:44:28.273Z,11.60
2019-04-10T11:47:35.411Z,10.00
2019-04-10T11:50:42.480Z,12.53
2019-04-10T11:53:50.746Z,13.40
2019-04-10T11:56:55.378Z,11.30
2019-04-10T12:00:02.233Z,10.47
2019-04-10T12:03:08.790Z,13.80
2019-04-10T12:06:12.006Z,12.13
2019-04-10T12:10:01.947Z,10.77
2019-04-10T12:12:24.110Z,12.77
2019-04-10T12:15:28.466Z,11.60
2019-04-10T12:18:33.518Z,10.87
2019-04-10T12:21:38.026Z,10.67
2019-04-10T12:24:42.639Z,10.50
2019-04-10T12:27:47.457Z,11.10
2019-04-10T12:30:51.829Z,10.60
2019-04-10T12:33:57.043Z,10.83
2019-04-10T12:37:02.807Z,10.23
2019-04-10T12:40:07.933Z,12.27
2019-04-10T12:43:13.258Z,11.60
2019-04-10T12:46:19.039Z,10.53
2019-04-10T12:49:23.879Z,9.73
2019-04-10T12:52:28.271Z,8.97
2019-04-10T12:55:32.700Z,9.90
2019-04-10T12:58:39.240Z,9.80
2019-04-10T13:01:44.802Z,9.63
2019-04-10T13:04:49.574Z,9.83
2019-04-10T13:07:54.043Z,8.03
2019-04-10T13:10:58.469Z,9.37
2019-04-10T13:14:03.952Z,7.83
2019-04-10T13:17:08.899Z,9.83
2019-04-10T13:20:14.078Z,10.80
2019-04-10T13:23:18.434Z,9.90
2019-04-10T13:26:23.931Z,10.37
2019-04-10T13:29:29.989Z,10.27
2019-04-10T13:32:36.033Z,11.90
2019-04-10T13:35:40.426Z,12.27
2019-04-10T13:38:44.691Z,11.00
2019-04-10T13:41:48.976Z,11.27
2019-04-10T13:44:53.308Z,12.20
2019-04-10T13:47:58.760Z,13.83
2019-04-10T13:51:03.417Z,11.97
2019-04-10T13:54:07.868Z,14.17
2019-04-10T13:57:12.164Z,9.80
2019-04-10T14:00:55.320Z,10.07
2019-04-10T14:04:00.916Z,13.47
2019-04-10T14:07:05.629Z,14.07
2019-04-10T14:10:12.496Z,11.30
2019-04-10T14:13:17.892Z,10.00
2019-04-10T14:16:22.463Z,13.07
2019-04-10T14:19:27.842Z,10.13
2019-04-10T14:22:32.169Z,14.10
2019-04-10T14:25:47.721Z,14.07
2019-04-10T14:28:53.551Z,11.87
2019-04-10T14:32:04.923Z,11.87
2019-04-10T14:35:11.415Z,10.30
2019-04-10T14:38:17.005Z,9.63
2019-04-10T14:41:22.109Z,11.07
2019-04-10T14:44:28.433Z,11.07
2019-04-10T14:47:33.765Z,13.30
2019-04-10T14:50:38.602Z,12.00
2019-04-10T14:53:43.587Z,11.00
2019-04-10T14:56:48.453Z,12.27
2019-04-10T14:59:53.387Z,11.07
2019-04-10T15:02:58.048Z,12.37
2019-04-10T15:06:02.648Z,12.10
2019-04-10T15:09:23.262Z,11.80
2019-04-10T15:12:22.766Z,12.33
2019-04-10T15:15:28.132Z,9.67
2019-04-10T15:18:33.138Z,13.00
2019-04-10T15:21:38.775Z,11.33
2019-04-10T15:24:43.208Z,10.50
2019-04-10T15:27:47.510Z,10.37
2019-04-10T15:30:52.998Z,11.80
2019-04-10T15:33:58.116Z,12.03
2019-04-10T15:37:04.593Z,8.40
2019-04-10T15:40:18.355Z,9.73
2019-04-10T15:43:16.780Z,9.40
2019-04-10T15:46:21.318Z,10.97
2019-04-10T15:49:27.176Z,10.67
2019-04-10T15:52:32.030Z,11.27
2019-04-10T15:55:36.670Z,9.37
2019-04-10T15:58:41.910Z,9.27
2019-04-10T16:01:46.927Z,10.20
2019-04-10T16:04:51.306Z,10.37
2019-04-10T16:07:58.581Z,7.50
2019-04-10T16:11:21.607Z,9.60
2019-04-10T16:14:29.033Z,10.97
2019-04-10T16:17:42.283Z,8.20
2019-04-10T16:20:47.786Z,8.10
2019-04-10T16:23:59.112Z,8.10
2019-04-10T16:27:03.736Z,8.60
2019-04-10T16:30:10.713Z,6.73
2019-04-10T16:33:15.034Z,10.47
2019-04-10T16:36:19.361Z,10.23
2019-04-10T16:39:23.947Z,8.87
2019-04-10T16:42:29.068Z,9.80
2019-04-10T16:45:33.436Z,7.77
2019-04-10T16:48:38.324Z,8.83
2019-04-10T16:51:42.970Z,7.27
2019-04-10T16:54:49.086Z,9.70
2019-04-10T16:57:53.673Z,7.10
2019-04-10T17:00:58.152Z,8.73
2019-04-10T17:04:02.787Z,7.93
2019-04-10T17:07:07.153Z,6.63
2019-04-10T17:10:18.216Z,7.57
2019-04-10T17:13:38.503Z,5.37
2019-04-10T17:16:43.997Z,4.97
2019-04-10T17:19:53.569Z,6.80
2019-04-10T17:22:54.431Z,9.80
2019-04-10T17:26:00.307Z,12.93
2019-04-10T17:29:05.156Z,10.17
2019-04-10T17:32:09.495Z,7.00
2019-04-10T17:35:14.254Z,7.30
2019-04-10T17:38:18.638Z,5.77
2019-04-10T17:41:23.815Z,8.50
2019-04-10T17:44:29.460Z,6.97
2019-04-10T17:47:34.026Z,6.73
2019-04-10T17:50:39.481Z,8.57
2019-04-10T17:53:45.281Z,7.97
2019-04-10T17:56:52.658Z,6.63
2019-04-10T17:59:57.138Z,6.90
2019-04-10T18:03:01.513Z,6.20
2019-04-10T18:06:06.826Z,6.53
2019-04-10T18:09:11.734Z,5.67
2019-04-10T18:12:16.436Z,5.83
2019-04-10T18:15:21.883Z,5.63
2019-04-10T18:18:27.388Z,6.57
2019-04-10T18:21:32.966Z,6.67
2019-04-10T18:24:38.094Z,6.70
2019-04-10T18:27:42.830Z,5.70
2019-04-10T18:30:48.177Z,6.17
2019-04-10T18:33:53.112Z,5.67
2019-04-10T18:36:57.620Z,4.90
2019-04-10T18:40:03.405Z,8.17
2019-04-10T18:43:07.783Z,6.50
2019-04-10T18:46:16.507Z,6.90
2019-04-10T18:49:19.328Z,6.07
2019-04-10T18:52:23.750Z,6.63
2019-04-10T18:55:28.159Z,5.67
2019-04-10T18:58:38.462Z,6.57
2019-04-10T19:01:59.297Z,5.70
2019-04-10T19:05:14.025Z,6.10
2019-04-10T19:08:19.673Z,5.83
2019-04-10T19:11:32.425Z,6.10
2019-04-10T19:14:36.617Z,6.20
2019-04-10T19:17:40.541Z,5.43
2019-04-10T19:20:46.918Z,4.73
2019-04-10T19:23:53.236Z,5.97
2019-04-10T19:26:57.914Z,5.00
2019-04-10T19:30:04.857Z,4.63
2019-04-10T19:33:10.065Z,5.73
2019-04-10T19:36:15.291Z,4.90
2019-04-10T19:39:26.543Z,5.60
2019-04-10T19:42:31.246Z,5.37
2019-04-10T19:45:36.216Z,5.23
2019-04-10T19:48:41.550Z,6.23
2019-04-10T19:51:46.704Z,6.67
2019-04-10T19:54:51.340Z,5.63
2019-04-10T19:57:57.860Z,5.70
2019-04-10T20:01:03.149Z,5.70
2019-04-10T20:04:10.290Z,8.93
2019-04-10T20:07:14.750Z,7.07
2019-04-10T20:10:19.285Z,6.93
2019-04-10T20:13:24.789Z,5.80
2019-04-10T20:16:29.460Z,6.17
2019-04-10T20:19:34.810Z,6.53
2019-04-10T20:22:39.311Z,6.23
2019-04-10T20:25:43.622Z,6.40
2019-04-10T20:28:48.324Z,7.60
2019-04-10T20:31:53.376Z,7.13
2019-04-10T20:35:00.001Z,5.57
2019-04-10T20:38:04.429Z,5.90
2019-04-10T20:41:08.756Z,4.93
2019-04-10T20:44:13.111Z,6.03
2019-04-10T20:47:17.406Z,6.93
2019-04-10T20:50:21.809Z,6.67
2019-04-10T20:53:26.293Z,7.93
2019-04-10T20:56:31.241Z,5.50
2019-04-10T20:59:35.593Z,6.83
2019-04-10T21:02:39.930Z,9.20
2019-04-10T21:05:44.584Z,8.33
2019-04-10T21:08:50.211Z,6.67
2019-04-10T21:12:02.123Z,9.13
2019-04-10T21:15:03.933Z,7.70
2019-04-10T21:18:08.241Z,6.00
2019-04-10T21:21:12.556Z,6.47
2019-04-10T21:24:16.835Z,6.00
2019-04-10T21:27:22.968Z,7.90
2019-04-10T21:30:46.538Z,5.33
2019-04-10T21:34:10.477Z,7.30
2019-04-10T21:37:14.443Z,8.27
2019-04-10T21:40:18.858Z,7.20
2019-04-10T21:43:23.133Z,7.90
2019-04-10T21:46:28.446Z,7.80
2019-04-10T21:49:32.863Z,6.13
2019-04-10T21:52:37.269Z,8.73
2019-04-10T21:55:41.768Z,8.10
2019-04-10T21:58:47.233Z,5.57
2019-04-10T22:01:59.326Z,10.23
2019-04-10T22:05:08.145Z,8.63
2019-04-10T22:08:21.671Z,10.83
2019-04-10T22:11:26.238Z,9.17
2019-04-10T22:14:30.633Z,7.43
2019-04-10T22:17:36.156Z,11.33
2019-04-10T22:20:41.659Z,7.37
2019-04-10T22:23:46.953Z,6.93
2019-04-10T22:26:52.262Z,7.23
2019-04-10T22:29:56.669Z,7.57
2019-04-10T22:33:00.954Z,10.50
2019-04-10T22:36:06.395Z,8.67
2019-04-10T22:39:14.605Z,6.33
2019-04-10T22:42:19.233Z,7.10
2019-04-10T22:45:29.215Z,8.13
2019-04-10T22:48:34.543Z,8.07
2019-04-10T22:51:39.798Z,6.13
2019-04-10T22:54:44.389Z,5.93
2019-04-10T22:57:48.724Z,4.63
2019-04-10T23:00:53.893Z,5.60
2019-04-10T23:03:58.457Z,5.63
2019-04-10T23:07:03.858Z,4.47
2019-04-10T23:10:13.193Z,4.80
2019-04-10T23:13:18.137Z,6.17
2019-04-10T23:16:22.615Z,5.20
2019-04-10T23:19:28.051Z,5.83
2019-04-10T23:22:33.518Z,5.10
2019-04-10T23:25:37.858Z,5.50
2019-04-10T23:28:42.083Z,4.87
2019-04-10T23:31:46.409Z,5.33
2019-04-10T23:34:50.796Z,5.60
2019-04-10T23:37:55.278Z,4.07
2019-04-10T23:40:59.666Z,5.80
2019-04-10T23:44:07.020Z,5.50
2019-04-10T23:47:11.736Z,4.87
2019-04-10T23:50:16.576Z,4.97
2019-04-10T23:53:21.031Z,4.10
2019-04-10T23:56:25.357Z,4.93
2019-04-10T23:59:30.810Z,7.33
